sensor_id;sensor_type;location;lat;lon;timestamp;temperature;humidity
17740;DHT22;8990;33.226;-97.150;2024-02-23T00:00:08;21.70;98.40
17740;DHT22;8990;33.226;-97.150;2024-02-23T00:02:39;21.70;98.70
17740;DHT22;8990;33.226;-97.150;2024-02-23T00:05:08;21.60;98.80
17740;DHT22;8990;33.226;-97.150;2024-02-23T00:07:37;21.50;98.90
17740;DHT22;8990;33.226;-97.150;2024-02-23T00:10:07;21.50;99.00
17740;DHT22;8990;33.226;-97.150;2024-02-23T00:12:37;21.50;99.20
17740;DHT22;8990;33.226;-97.150;2024-02-23T00:15:07;21.30;99.60
17740;DHT22;8990;33.226;-97.150;2024-02-23T00:17:36;21.30;99.40
17740;DHT22;8990;33.226;-97.150;2024-02-23T00:20:10;21.20;99.70
17740;DHT22;8990;33.226;-97.150;2024-02-23T00:22:39;21.10;99.80
17740;DHT22;8990;33.226;-97.150;2024-02-23T00:25:08;21.00;99.90
17740;DHT22;8990;33.226;-97.150;2024-02-23T00:27:37;20.90;99.90
17740;DHT22;8990;33.226;-97.150;2024-02-23T00:30:09;20.90;99.90
17740;DHT22;8990;33.226;-97.150;2024-02-23T00:32:38;20.80;99.90
17740;DHT22;8990;33.226;-97.150;2024-02-23T00:35:09;20.80;99.90
17740;DHT22;8990;33.226;-97.150;2024-02-23T00:37:38;20.70;99.90
17740;DHT22;8990;33.226;-97.150;2024-02-23T00:40:08;20.60;99.90
17740;DHT22;8990;33.226;-97.150;2024-02-23T00:42:37;20.60;99.90
17740;DHT22;8990;33.226;-97.150;2024-02-23T00:45:07;20.50;99.90
17740;DHT22;8990;33.226;-97.150;2024-02-23T00:47:36;20.40;99.90
17740;DHT22;8990;33.226;-97.150;2024-02-23T00:50:08;20.30;99.90
17740;DHT22;8990;33.226;-97.150;2024-02-23T00:52:40;20.20;99.90
17740;DHT22;8990;33.226;-97.150;2024-02-23T00:55:09;20.10;99.90
17740;DHT22;8990;33.226;-97.150;2024-02-23T00:57:38;20.10;99.90
17740;DHT22;8990;33.226;-97.150;2024-02-23T01:00:08;20.00;99.90
17740;DHT22;8990;33.226;-97.150;2024-02-23T01:02:38;19.90;99.90
17740;DHT22;8990;33.226;-97.150;2024-02-23T01:05:09;19.90;99.90
17740;DHT22;8990;33.226;-97.150;2024-02-23T01:07:38;19.90;99.90
17740;DHT22;8990;33.226;-97.150;2024-02-23T01:10:07;19.80;99.90
17740;DHT22;8990;33.226;-97.150;2024-02-23T01:12:36;19.70;99.90
17740;DHT22;8990;33.226;-97.150;2024-02-23T01:15:06;19.70;99.90
17740;DHT22;8990;33.226;-97.150;2024-02-23T01:17:35;19.70;99.90
17740;DHT22;8990;33.226;-97.150;2024-02-23T01:20:05;19.70;99.90
17740;DHT22;8990;33.226;-97.150;2024-02-23T01:22:36;19.60;99.90
17740;DHT22;8990;33.226;-97.150;2024-02-23T01:25:06;19.60;99.90
17740;DHT22;8990;33.226;-97.150;2024-02-23T01:27:35;19.50;99.90
17740;DHT22;8990;33.226;-97.150;2024-02-23T01:30:06;19.50;99.90
17740;DHT22;8990;33.226;-97.150;2024-02-23T01:32:35;19.50;99.90
17740;DHT22;8990;33.226;-97.150;2024-02-23T01:35:06;19.50;99.90
17740;DHT22;8990;33.226;-97.150;2024-02-23T01:37:38;19.50;99.90
17740;DHT22;8990;33.226;-97.150;2024-02-23T01:40:07;19.50;99.90
17740;DHT22;8990;33.226;-97.150;2024-02-23T01:42:36;19.40;99.90
17740;DHT22;8990;33.226;-97.150;2024-02-23T01:45:06;19.40;99.90
17740;DHT22;8990;33.226;-97.150;2024-02-23T01:47:35;19.40;99.90
17740;DHT22;8990;33.226;-97.150;2024-02-23T01:50:06;19.40;99.90
17740;DHT22;8990;33.226;-97.150;2024-02-23T01:52:37;19.40;99.90
17740;DHT22;8990;33.226;-97.150;2024-02-23T01:55:07;19.30;99.90
17740;DHT22;8990;33.226;-97.150;2024-02-23T01:57:36;19.30;99.90
17740;DHT22;8990;33.226;-97.150;2024-02-23T02:00:08;19.30;99.90
17740;DHT22;8990;33.226;-97.150;2024-02-23T02:02:44;19.20;99.90
17740;DHT22;8990;33.226;-97.150;2024-02-23T02:05:14;19.20;99.90
17740;DHT22;8990;33.226;-97.150;2024-02-23T02:07:45;19.20;99.90
17740;DHT22;8990;33.226;-97.150;2024-02-23T02:10:15;19.00;99.90
17740;DHT22;8990;33.226;-97.150;2024-02-23T02:12:45;18.90;99.90
17740;DHT22;8990;33.226;-97.150;2024-02-23T02:15:15;18.90;99.90
17740;DHT22;8990;33.226;-97.150;2024-02-23T02:17:44;18.90;99.90
17740;DHT22;8990;33.226;-97.150;2024-02-23T02:20:13;18.80;99.90
17740;DHT22;8990;33.226;-97.150;2024-02-23T02:22:44;18.80;99.90
17740;DHT22;8990;33.226;-97.150;2024-02-23T02:25:14;18.80;99.90
17740;DHT22;8990;33.226;-97.150;2024-02-23T02:27:44;18.70;99.90
17740;DHT22;8990;33.226;-97.150;2024-02-23T02:30:13;18.60;99.90
17740;DHT22;8990;33.226;-97.150;2024-02-23T02:32:42;18.60;99.90
17740;DHT22;8990;33.226;-97.150;2024-02-23T02:35:12;18.60;99.90
17740;DHT22;8990;33.226;-97.150;2024-02-23T02:37:41;18.50;99.90
17740;DHT22;8990;33.226;-97.150;2024-02-23T02:40:12;18.40;99.90
17740;DHT22;8990;33.226;-97.150;2024-02-23T02:42:41;18.40;99.90
17740;DHT22;8990;33.226;-97.150;2024-02-23T02:45:10;18.40;99.90
17740;DHT22;8990;33.226;-97.150;2024-02-23T02:47:39;18.30;99.90
17740;DHT22;8990;33.226;-97.150;2024-02-23T02:50:09;18.30;99.90
17740;DHT22;8990;33.226;-97.150;2024-02-23T02:52:38;18.30;99.90
17740;DHT22;8990;33.226;-97.150;2024-02-23T02:55:08;18.20;99.90
17740;DHT22;8990;33.226;-97.150;2024-02-23T02:57:38;18.20;99.90
17740;DHT22;8990;33.226;-97.150;2024-02-23T03:00:10;18.20;99.90
17740;DHT22;8990;33.226;-97.150;2024-02-23T03:02:39;18.10;99.90
17740;DHT22;8990;33.226;-97.150;2024-02-23T03:05:09;18.10;99.90
17740;DHT22;8990;33.226;-97.150;2024-02-23T03:07:37;18.10;99.90
17740;DHT22;8990;33.226;-97.150;2024-02-23T03:10:07;18.00;99.90
17740;DHT22;8990;33.226;-97.150;2024-02-23T03:12:38;18.00;99.90
17740;DHT22;8990;33.226;-97.150;2024-02-23T03:15:07;18.00;99.90
17740;DHT22;8990;33.226;-97.150;2024-02-23T03:17:37;18.00;99.90
17740;DHT22;8990;33.226;-97.150;2024-02-23T03:20:06;18.00;99.90
17740;DHT22;8990;33.226;-97.150;2024-02-23T03:22:37;17.90;99.90
17740;DHT22;8990;33.226;-97.150;2024-02-23T03:25:07;17.90;99.90
17740;DHT22;8990;33.226;-97.150;2024-02-23T03:27:38;17.80;99.90
17740;DHT22;8990;33.226;-97.150;2024-02-23T03:30:08;17.80;99.90
17740;DHT22;8990;33.226;-97.150;2024-02-23T03:32:37;17.80;99.90
17740;DHT22;8990;33.226;-97.150;2024-02-23T03:35:07;17.70;99.90
17740;DHT22;8990;33.226;-97.150;2024-02-23T03:37:37;17.80;99.90
17740;DHT22;8990;33.226;-97.150;2024-02-23T03:40:07;17.70;99.90
17740;DHT22;8990;33.226;-97.150;2024-02-23T03:42:38;17.70;99.90
17740;DHT22;8990;33.226;-97.150;2024-02-23T03:45:08;17.70;99.90
17740;DHT22;8990;33.226;-97.150;2024-02-23T03:47:38;17.70;99.90
17740;DHT22;8990;33.226;-97.150;2024-02-23T03:50:07;17.70;99.90
17740;DHT22;8990;33.226;-97.150;2024-02-23T03:52:36;17.60;99.90
17740;DHT22;8990;33.226;-97.150;2024-02-23T03:55:06;17.60;99.90
17740;DHT22;8990;33.226;-97.150;2024-02-23T03:57:35;17.60;99.90
17740;DHT22;8990;33.226;-97.150;2024-02-23T04:00:07;17.60;99.90
17740;DHT22;8990;33.226;-97.150;2024-02-23T04:02:42;17.50;99.90
17740;DHT22;8990;33.226;-97.150;2024-02-23T04:05:11;17.50;99.90
17740;DHT22;8990;33.226;-97.150;2024-02-23T04:07:40;17.50;99.90
17740;DHT22;8990;33.226;-97.150;2024-02-23T04:10:09;17.50;99.90
17740;DHT22;8990;33.226;-97.150;2024-02-23T04:12:43;17.50;99.90
17740;DHT22;8990;33.226;-97.150;2024-02-23T04:15:13;17.40;99.90
17740;DHT22;8990;33.226;-97.150;2024-02-23T04:17:42;17.30;99.90
17740;DHT22;8990;33.226;-97.150;2024-02-23T04:20:12;17.30;99.90
17740;DHT22;8990;33.226;-97.150;2024-02-23T04:22:41;17.20;99.90
17740;DHT22;8990;33.226;-97.150;2024-02-23T04:25:10;17.10;99.90
17740;DHT22;8990;33.226;-97.150;2024-02-23T04:27:39;17.10;99.90
17740;DHT22;8990;33.226;-97.150;2024-02-23T04:30:09;17.00;99.90
17740;DHT22;8990;33.226;-97.150;2024-02-23T04:32:41;17.00;99.90
17740;DHT22;8990;33.226;-97.150;2024-02-23T04:35:11;17.00;99.90
17740;DHT22;8990;33.226;-97.150;2024-02-23T04:37:40;17.00;99.90
17740;DHT22;8990;33.226;-97.150;2024-02-23T04:40:12;16.90;99.90
17740;DHT22;8990;33.226;-97.150;2024-02-23T04:42:41;16.80;99.90
17740;DHT22;8990;33.226;-97.150;2024-02-23T04:45:12;16.80;99.90
17740;DHT22;8990;33.226;-97.150;2024-02-23T04:47:42;16.70;99.90
17740;DHT22;8990;33.226;-97.150;2024-02-23T04:50:13;16.70;99.90
17740;DHT22;8990;33.226;-97.150;2024-02-23T04:52:42;16.60;99.90
17740;DHT22;8990;33.226;-97.150;2024-02-23T04:55:12;16.60;99.90
17740;DHT22;8990;33.226;-97.150;2024-02-23T04:57:40;16.60;99.90
17740;DHT22;8990;33.226;-97.150;2024-02-23T05:00:11;16.60;99.90
17740;DHT22;8990;33.226;-97.150;2024-02-23T05:02:41;16.60;99.90
17740;DHT22;8990;33.226;-97.150;2024-02-23T05:05:11;16.50;99.90
17740;DHT22;8990;33.226;-97.150;2024-02-23T05:07:39;16.50;99.90
17740;DHT22;8990;33.226;-97.150;2024-02-23T05:10:09;16.40;99.90
17740;DHT22;8990;33.226;-97.150;2024-02-23T05:12:38;16.40;99.90
17740;DHT22;8990;33.226;-97.150;2024-02-23T05:15:08;16.40;99.90
17740;DHT22;8990;33.226;-97.150;2024-02-23T05:17:37;16.30;99.90
17740;DHT22;8990;33.226;-97.150;2024-02-23T05:20:09;16.30;99.90
17740;DHT22;8990;33.226;-97.150;2024-02-23T05:22:38;16.30;99.90
17740;DHT22;8990;33.226;-97.150;2024-02-23T05:25:08;16.30;99.90
17740;DHT22;8990;33.226;-97.150;2024-02-23T05:27:37;16.20;99.90
17740;DHT22;8990;33.226;-97.150;2024-02-23T05:30:07;16.20;99.90
17740;DHT22;8990;33.226;-97.150;2024-02-23T05:32:36;16.10;99.90
17740;DHT22;8990;33.226;-97.150;2024-02-23T05:35:07;16.10;99.90
17740;DHT22;8990;33.226;-97.150;2024-02-23T05:37:37;16.10;99.90
17740;DHT22;8990;33.226;-97.150;2024-02-23T05:40:06;16.00;99.90
17740;DHT22;8990;33.226;-97.150;2024-02-23T05:42:37;16.00;99.90
17740;DHT22;8990;33.226;-97.150;2024-02-23T05:45:08;16.00;99.90
17740;DHT22;8990;33.226;-97.150;2024-02-23T05:47:37;16.00;99.90
17740;DHT22;8990;33.226;-97.150;2024-02-23T05:50:09;15.90;99.90
17740;DHT22;8990;33.226;-97.150;2024-02-23T05:52:38;15.90;99.90
17740;DHT22;8990;33.226;-97.150;2024-02-23T05:55:08;15.80;99.90
17740;DHT22;8990;33.226;-97.150;2024-02-23T05:57:37;15.80;99.90
17740;DHT22;8990;33.226;-97.150;2024-02-23T06:00:06;15.80;99.90
17740;DHT22;8990;33.226;-97.150;2024-02-23T06:02:39;15.70;99.90
17740;DHT22;8990;33.226;-97.150;2024-02-23T06:05:09;15.70;99.90
17740;DHT22;8990;33.226;-97.150;2024-02-23T06:07:39;15.70;99.90
17740;DHT22;8990;33.226;-97.150;2024-02-23T06:10:08;15.60;99.90
17740;DHT22;8990;33.226;-97.150;2024-02-23T06:12:37;15.70;99.90
17740;DHT22;8990;33.226;-97.150;2024-02-23T06:15:08;15.60;99.90
17740;DHT22;8990;33.226;-97.150;2024-02-23T06:17:38;15.60;99.90
17740;DHT22;8990;33.226;-97.150;2024-02-23T06:20:10;15.60;99.90
17740;DHT22;8990;33.226;-97.150;2024-02-23T06:22:39;15.60;99.90
17740;DHT22;8990;33.226;-97.150;2024-02-23T06:25:09;15.50;99.90
17740;DHT22;8990;33.226;-97.150;2024-02-23T06:27:38;15.40;99.90
17740;DHT22;8990;33.226;-97.150;2024-02-23T06:30:08;15.40;99.90
17740;DHT22;8990;33.226;-97.150;2024-02-23T06:32:37;15.40;99.90
17740;DHT22;8990;33.226;-97.150;2024-02-23T06:35:09;15.30;99.90
17740;DHT22;8990;33.226;-97.150;2024-02-23T06:37:39;15.30;99.90
17740;DHT22;8990;33.226;-97.150;2024-02-23T06:40:08;15.20;99.90
17740;DHT22;8990;33.226;-97.150;2024-02-23T06:42:37;15.20;99.90
17740;DHT22;8990;33.226;-97.150;2024-02-23T06:45:07;15.10;99.90
17740;DHT22;8990;33.226;-97.150;2024-02-23T06:47:36;15.10;99.90
17740;DHT22;8990;33.226;-97.150;2024-02-23T06:50:09;15.10;99.90
17740;DHT22;8990;33.226;-97.150;2024-02-23T06:52:38;15.00;99.90
17740;DHT22;8990;33.226;-97.150;2024-02-23T06:55:07;14.90;99.90
17740;DHT22;8990;33.226;-97.150;2024-02-23T06:57:37;14.90;99.90
17740;DHT22;8990;33.226;-97.150;2024-02-23T07:00:07;14.90;99.90
17740;DHT22;8990;33.226;-97.150;2024-02-23T07:02:37;14.90;99.90
17740;DHT22;8990;33.226;-97.150;2024-02-23T07:05:06;14.90;99.90
17740;DHT22;8990;33.226;-97.150;2024-02-23T07:07:37;14.90;99.90
17740;DHT22;8990;33.226;-97.150;2024-02-23T07:10:08;14.80;99.90
17740;DHT22;8990;33.226;-97.150;2024-02-23T07:12:37;14.80;99.90
17740;DHT22;8990;33.226;-97.150;2024-02-23T07:15:07;14.70;99.90
17740;DHT22;8990;33.226;-97.150;2024-02-23T07:17:36;14.70;99.90
17740;DHT22;8990;33.226;-97.150;2024-02-23T07:20:06;14.60;99.90
17740;DHT22;8990;33.226;-97.150;2024-02-23T07:22:37;14.60;99.90
17740;DHT22;8990;33.226;-97.150;2024-02-23T07:25:06;14.50;99.90
17740;DHT22;8990;33.226;-97.150;2024-02-23T07:27:35;14.50;99.90
17740;DHT22;8990;33.226;-97.150;2024-02-23T07:30:05;14.50;99.90
17740;DHT22;8990;33.226;-97.150;2024-02-23T07:32:34;14.50;99.90
17740;DHT22;8990;33.226;-97.150;2024-02-23T07:35:03;14.50;99.90
17740;DHT22;8990;33.226;-97.150;2024-02-23T07:37:32;14.40;99.90
17740;DHT22;8990;33.226;-97.150;2024-02-23T07:40:02;14.40;99.90
17740;DHT22;8990;33.226;-97.150;2024-02-23T07:42:32;14.30;99.90
17740;DHT22;8990;33.226;-97.150;2024-02-23T07:45:03;14.20;99.90
17740;DHT22;8990;33.226;-97.150;2024-02-23T07:47:32;14.20;99.90
17740;DHT22;8990;33.226;-97.150;2024-02-23T07:50:01;14.20;99.90
17740;DHT22;8990;33.226;-97.150;2024-02-23T07:52:30;14.20;99.90
17740;DHT22;8990;33.226;-97.150;2024-02-23T07:55:01;14.20;99.90
17740;DHT22;8990;33.226;-97.150;2024-02-23T07:57:32;14.20;99.90
17740;DHT22;8990;33.226;-97.150;2024-02-23T08:00:01;14.10;99.90
17740;DHT22;8990;33.226;-97.150;2024-02-23T08:02:38;14.10;99.90
17740;DHT22;8990;33.226;-97.150;2024-02-23T08:05:08;14.00;99.90
17740;DHT22;8990;33.226;-97.150;2024-02-23T08:07:37;14.00;99.90
17740;DHT22;8990;33.226;-97.150;2024-02-23T08:10:08;13.90;99.90
17740;DHT22;8990;33.226;-97.150;2024-02-23T08:12:38;14.00;99.90
17740;DHT22;8990;33.226;-97.150;2024-02-23T08:15:08;13.90;99.90
17740;DHT22;8990;33.226;-97.150;2024-02-23T08:17:37;13.90;99.90
17740;DHT22;8990;33.226;-97.150;2024-02-23T08:20:07;13.80;99.90
17740;DHT22;8990;33.226;-97.150;2024-02-23T08:22:36;13.80;99.90
17740;DHT22;8990;33.226;-97.150;2024-02-23T08:25:07;13.70;99.90
17740;DHT22;8990;33.226;-97.150;2024-02-23T08:27:37;13.70;99.90
17740;DHT22;8990;33.226;-97.150;2024-02-23T08:30:07;13.60;99.90
17740;DHT22;8990;33.226;-97.150;2024-02-23T08:32:37;13.60;99.90
17740;DHT22;8990;33.226;-97.150;2024-02-23T08:35:07;13.60;99.90
17740;DHT22;8990;33.226;-97.150;2024-02-23T08:37:36;13.60;99.90
17740;DHT22;8990;33.226;-97.150;2024-02-23T08:40:08;13.60;99.90
17740;DHT22;8990;33.226;-97.150;2024-02-23T08:42:37;13.50;99.90
17740;DHT22;8990;33.226;-97.150;2024-02-23T08:45:07;13.50;99.90
17740;DHT22;8990;33.226;-97.150;2024-02-23T08:47:36;13.40;99.90
17740;DHT22;8990;33.226;-97.150;2024-02-23T08:50:06;13.40;99.90
17740;DHT22;8990;33.226;-97.150;2024-02-23T08:52:36;13.40;99.90
17740;DHT22;8990;33.226;-97.150;2024-02-23T08:55:05;13.40;99.90
17740;DHT22;8990;33.226;-97.150;2024-02-23T08:57:35;13.30;99.90
17740;DHT22;8990;33.226;-97.150;2024-02-23T09:00:05;13.30;99.90
17740;DHT22;8990;33.226;-97.150;2024-02-23T09:02:34;13.30;99.90
17740;DHT22;8990;33.226;-97.150;2024-02-23T09:05:05;13.30;99.90
17740;DHT22;8990;33.226;-97.150;2024-02-23T09:07:34;13.20;99.90
17740;DHT22;8990;33.226;-97.150;2024-02-23T09:10:04;13.20;99.90
17740;DHT22;8990;33.226;-97.150;2024-02-23T09:12:33;13.20;99.90
17740;DHT22;8990;33.226;-97.150;2024-02-23T09:15:04;13.10;99.90
17740;DHT22;8990;33.226;-97.150;2024-02-23T09:17:34;13.10;99.90
17740;DHT22;8990;33.226;-97.150;2024-02-23T09:20:04;13.10;99.90
17740;DHT22;8990;33.226;-97.150;2024-02-23T09:22:34;13.00;99.90
17740;DHT22;8990;33.226;-97.150;2024-02-23T09:25:35;13.00;99.90
17740;DHT22;8990;33.226;-97.150;2024-02-23T09:28:04;13.10;99.90
17740;DHT22;8990;33.226;-97.150;2024-02-23T09:30:35;13.00;99.90
17740;DHT22;8990;33.226;-97.150;2024-02-23T09:33:04;13.00;99.90
17740;DHT22;8990;33.226;-97.150;2024-02-23T09:35:33;12.90;99.90
17740;DHT22;8990;33.226;-97.150;2024-02-23T09:38:02;12.90;99.90
17740;DHT22;8990;33.226;-97.150;2024-02-23T09:40:31;12.90;99.90
17740;DHT22;8990;33.226;-97.150;2024-02-23T09:43:00;12.80;99.90
17740;DHT22;8990;33.226;-97.150;2024-02-23T09:45:29;12.70;99.90
17740;DHT22;8990;33.226;-97.150;2024-02-23T09:48:01;12.80;99.90
17740;DHT22;8990;33.226;-97.150;2024-02-23T09:50:32;12.80;99.90
17740;DHT22;8990;33.226;-97.150;2024-02-23T09:53:02;12.70;99.90
17740;DHT22;8990;33.226;-97.150;2024-02-23T09:55:35;12.60;99.90
17740;DHT22;8990;33.226;-97.150;2024-02-23T09:58:04;12.60;99.90
17740;DHT22;8990;33.226;-97.150;2024-02-23T10:00:37;12.60;99.90
17740;DHT22;8990;33.226;-97.150;2024-02-23T10:03:08;12.50;99.90
17740;DHT22;8990;33.226;-97.150;2024-02-23T10:05:37;12.50;99.90
17740;DHT22;8990;33.226;-97.150;2024-02-23T10:08:06;12.40;99.90
17740;DHT22;8990;33.226;-97.150;2024-02-23T10:10:36;12.40;99.90
17740;DHT22;8990;33.226;-97.150;2024-02-23T10:13:05;12.40;99.90
17740;DHT22;8990;33.226;-97.150;2024-02-23T10:15:35;12.30;99.90
17740;DHT22;8990;33.226;-97.150;2024-02-23T10:18:04;12.40;99.90
17740;DHT22;8990;33.226;-97.150;2024-02-23T10:20:34;12.30;99.90
17740;DHT22;8990;33.226;-97.150;2024-02-23T10:23:04;12.30;99.90
17740;DHT22;8990;33.226;-97.150;2024-02-23T10:25:34;12.20;99.90
17740;DHT22;8990;33.226;-97.150;2024-02-23T10:28:04;12.20;99.90
17740;DHT22;8990;33.226;-97.150;2024-02-23T10:30:34;12.20;99.90
17740;DHT22;8990;33.226;-97.150;2024-02-23T10:33:05;12.10;99.90
17740;DHT22;8990;33.226;-97.150;2024-02-23T10:35:38;12.00;99.90
17740;DHT22;8990;33.226;-97.150;2024-02-23T10:38:08;11.90;99.90
17740;DHT22;8990;33.226;-97.150;2024-02-23T10:40:39;11.90;99.90
17740;DHT22;8990;33.226;-97.150;2024-02-23T10:43:12;11.80;99.90
17740;DHT22;8990;33.226;-97.150;2024-02-23T10:45:46;11.80;99.90
17740;DHT22;8990;33.226;-97.150;2024-02-23T10:48:15;11.80;99.90
17740;DHT22;8990;33.226;-97.150;2024-02-23T10:50:47;11.70;99.90
17740;DHT22;8990;33.226;-97.150;2024-02-23T10:53:17;11.70;99.90
17740;DHT22;8990;33.226;-97.150;2024-02-23T10:55:50;11.60;99.90
17740;DHT22;8990;33.226;-97.150;2024-02-23T10:58:20;11.60;99.90
17740;DHT22;8990;33.226;-97.150;2024-02-23T11:00:49;11.50;99.90
17740;DHT22;8990;33.226;-97.150;2024-02-23T11:03:19;11.60;99.90
17740;DHT22;8990;33.226;-97.150;2024-02-23T11:05:50;11.50;99.90
17740;DHT22;8990;33.226;-97.150;2024-02-23T11:08:19;11.50;99.90
17740;DHT22;8990;33.226;-97.150;2024-02-23T11:10:51;11.50;99.90
17740;DHT22;8990;33.226;-97.150;2024-02-23T11:13:30;11.50;99.90
17740;DHT22;8990;33.226;-97.150;2024-02-23T11:16:03;11.40;99.90
17740;DHT22;8990;33.226;-97.150;2024-02-23T11:18:34;11.40;99.90
17740;DHT22;8990;33.226;-97.150;2024-02-23T11:21:05;11.40;99.90
17740;DHT22;8990;33.226;-97.150;2024-02-23T11:23:41;11.40;99.90
17740;DHT22;8990;33.226;-97.150;2024-02-23T11:26:10;11.30;99.90
17740;DHT22;8990;33.226;-97.150;2024-02-23T11:28:43;11.30;99.90
17740;DHT22;8990;33.226;-97.150;2024-02-23T11:31:13;11.30;99.90
17740;DHT22;8990;33.226;-97.150;2024-02-23T11:33:48;11.30;99.90
17740;DHT22;8990;33.226;-97.150;2024-02-23T11:36:28;11.30;99.90
17740;DHT22;8990;33.226;-97.150;2024-02-23T11:38:58;11.30;99.90
17740;DHT22;8990;33.226;-97.150;2024-02-23T11:41:28;11.30;99.90
17740;DHT22;8990;33.226;-97.150;2024-02-23T11:43:57;11.30;99.90
17740;DHT22;8990;33.226;-97.150;2024-02-23T11:46:27;11.20;99.90
17740;DHT22;8990;33.226;-97.150;2024-02-23T11:48:56;11.20;99.90
17740;DHT22;8990;33.226;-97.150;2024-02-23T11:51:27;11.20;99.90
17740;DHT22;8990;33.226;-97.150;2024-02-23T11:53:57;11.20;99.90
17740;DHT22;8990;33.226;-97.150;2024-02-23T11:56:27;11.10;99.90
17740;DHT22;8990;33.226;-97.150;2024-02-23T11:58:57;11.10;99.90
17740;DHT22;8990;33.226;-97.150;2024-02-23T12:01:28;11.10;99.90
17740;DHT22;8990;33.226;-97.150;2024-02-23T12:03:57;11.10;99.90
17740;DHT22;8990;33.226;-97.150;2024-02-23T12:06:30;11.00;99.90
17740;DHT22;8990;33.226;-97.150;2024-02-23T12:08:59;11.00;99.90
17740;DHT22;8990;33.226;-97.150;2024-02-23T12:11:28;11.00;99.90
17740;DHT22;8990;33.226;-97.150;2024-02-23T12:13:58;10.90;99.90
17740;DHT22;8990;33.226;-97.150;2024-02-23T12:16:26;11.00;99.90
17740;DHT22;8990;33.226;-97.150;2024-02-23T12:18:56;10.90;99.90
17740;DHT22;8990;33.226;-97.150;2024-02-23T12:21:27;10.90;99.90
17740;DHT22;8990;33.226;-97.150;2024-02-23T12:23:56;10.90;99.90
17740;DHT22;8990;33.226;-97.150;2024-02-23T12:26:25;10.90;99.90
17740;DHT22;8990;33.226;-97.150;2024-02-23T12:29:01;10.90;99.90
17740;DHT22;8990;33.226;-97.150;2024-02-23T12:31:32;10.80;99.90
17740;DHT22;8990;33.226;-97.150;2024-02-23T12:34:01;10.80;99.90
17740;DHT22;8990;33.226;-97.150;2024-02-23T12:36:32;10.90;99.90
17740;DHT22;8990;33.226;-97.150;2024-02-23T12:39:03;10.80;99.90
17740;DHT22;8990;33.226;-97.150;2024-02-23T12:41:32;10.80;99.90
17740;DHT22;8990;33.226;-97.150;2024-02-23T12:44:01;10.80;99.90
17740;DHT22;8990;33.226;-97.150;2024-02-23T12:46:29;10.80;99.90
17740;DHT22;8990;33.226;-97.150;2024-02-23T12:48:58;10.80;99.90
17740;DHT22;8990;33.226;-97.150;2024-02-23T12:51:27;10.80;99.90
17740;DHT22;8990;33.226;-97.150;2024-02-23T12:53:59;10.70;99.90
17740;DHT22;8990;33.226;-97.150;2024-02-23T12:56:28;10.70;99.90
17740;DHT22;8990;33.226;-97.150;2024-02-23T12:58:57;10.70;99.90
17740;DHT22;8990;33.226;-97.150;2024-02-23T13:03:55;10.60;99.90
17740;DHT22;8990;33.226;-97.150;2024-02-23T13:06:24;10.60;99.90
17740;DHT22;8990;33.226;-97.150;2024-02-23T13:08:53;10.60;99.90
17740;DHT22;8990;33.226;-97.150;2024-02-23T13:11:23;10.60;99.90
17740;DHT22;8990;33.226;-97.150;2024-02-23T13:13:52;10.50;99.90
17740;DHT22;8990;33.226;-97.150;2024-02-23T13:16:21;10.50;99.90
17740;DHT22;8990;33.226;-97.150;2024-02-23T13:18:50;10.60;99.90
17740;DHT22;8990;33.226;-97.150;2024-02-23T13:21:19;10.50;99.90
17740;DHT22;8990;33.226;-97.150;2024-02-23T13:23:48;10.50;99.90
17740;DHT22;8990;33.226;-97.150;2024-02-23T13:26:17;10.60;99.90
17740;DHT22;8990;33.226;-97.150;2024-02-23T13:28:48;10.60;99.90
17740;DHT22;8990;33.226;-97.150;2024-02-23T13:31:18;10.60;99.90
17740;DHT22;8990;33.226;-97.150;2024-02-23T13:33:46;10.70;99.90
17740;DHT22;8990;33.226;-97.150;2024-02-23T13:36:15;10.80;99.90
17740;DHT22;8990;33.226;-97.150;2024-02-23T13:38:44;10.80;99.90
17740;DHT22;8990;33.226;-97.150;2024-02-23T13:41:13;10.90;99.90
17740;DHT22;8990;33.226;-97.150;2024-02-23T13:43:42;11.00;99.90
17740;DHT22;8990;33.226;-97.150;2024-02-23T13:46:13;11.10;99.90
17740;DHT22;8990;33.226;-97.150;2024-02-23T13:48:42;11.20;99.90
17740;DHT22;8990;33.226;-97.150;2024-02-23T13:51:11;11.30;99.90
17740;DHT22;8990;33.226;-97.150;2024-02-23T13:53:40;11.40;99.90
17740;DHT22;8990;33.226;-97.150;2024-02-23T13:56:09;11.50;99.90
17740;DHT22;8990;33.226;-97.150;2024-02-23T13:58:38;11.50;99.90
17740;DHT22;8990;33.226;-97.150;2024-02-23T14:01:07;11.60;99.90
17740;DHT22;8990;33.226;-97.150;2024-02-23T14:03:37;11.60;99.90
17740;DHT22;8990;33.226;-97.150;2024-02-23T14:06:06;11.70;99.90
17740;DHT22;8990;33.226;-97.150;2024-02-23T14:08:35;11.70;99.90
17740;DHT22;8990;33.226;-97.150;2024-02-23T14:11:05;11.80;99.90
17740;DHT22;8990;33.226;-97.150;2024-02-23T14:13:34;11.80;99.90
17740;DHT22;8990;33.226;-97.150;2024-02-23T14:16:03;11.80;99.90
17740;DHT22;8990;33.226;-97.150;2024-02-23T14:18:32;11.90;99.90
17740;DHT22;8990;33.226;-97.150;2024-02-23T14:21:06;12.00;99.90
17740;DHT22;8990;33.226;-97.150;2024-02-23T14:23:35;12.10;99.90
17740;DHT22;8990;33.226;-97.150;2024-02-23T14:26:04;12.20;99.90
17740;DHT22;8990;33.226;-97.150;2024-02-23T14:28:34;12.30;99.90
17740;DHT22;8990;33.226;-97.150;2024-02-23T14:31:03;12.40;99.90
17740;DHT22;8990;33.226;-97.150;2024-02-23T14:33:32;12.40;99.90
17740;DHT22;8990;33.226;-97.150;2024-02-23T14:36:01;12.50;99.90
17740;DHT22;8990;33.226;-97.150;2024-02-23T14:38:31;12.60;99.90
17740;DHT22;8990;33.226;-97.150;2024-02-23T14:41:01;12.60;99.90
17740;DHT22;8990;33.226;-97.150;2024-02-23T14:43:30;12.80;99.90
17740;DHT22;8990;33.226;-97.150;2024-02-23T14:45:59;12.80;99.90
17740;DHT22;8990;33.226;-97.150;2024-02-23T14:48:28;12.90;99.90
17740;DHT22;8990;33.226;-97.150;2024-02-23T14:50:57;13.00;99.90
17740;DHT22;8990;33.226;-97.150;2024-02-23T14:53:26;13.10;99.90
17740;DHT22;8990;33.226;-97.150;2024-02-23T14:55:56;13.20;99.90
17740;DHT22;8990;33.226;-97.150;2024-02-23T14:58:25;13.30;99.90
17740;DHT22;8990;33.226;-97.150;2024-02-23T15:00:54;13.50;99.90
17740;DHT22;8990;33.226;-97.150;2024-02-23T15:03:24;13.60;99.90
17740;DHT22;8990;33.226;-97.150;2024-02-23T15:05:53;13.70;99.90
17740;DHT22;8990;33.226;-97.150;2024-02-23T15:08:22;13.90;99.90
17740;DHT22;8990;33.226;-97.150;2024-02-23T15:10:51;13.90;99.90
17740;DHT22;8990;33.226;-97.150;2024-02-23T15:13:21;14.00;99.90
17740;DHT22;8990;33.226;-97.150;2024-02-23T15:15:50;14.20;99.90
17740;DHT22;8990;33.226;-97.150;2024-02-23T15:18:20;14.30;99.90
17740;DHT22;8990;33.226;-97.150;2024-02-23T15:20:49;14.40;99.90
17740;DHT22;8990;33.226;-97.150;2024-02-23T15:23:18;14.50;99.90
17740;DHT22;8990;33.226;-97.150;2024-02-23T15:25:50;14.60;99.90
17740;DHT22;8990;33.226;-97.150;2024-02-23T15:28:22;14.80;99.90
17740;DHT22;8990;33.226;-97.150;2024-02-23T15:30:51;14.90;99.90
17740;DHT22;8990;33.226;-97.150;2024-02-23T15:33:20;15.00;99.90